Time;durP1;ratioP1;P1;durP2;ratioP2;P2;SDS_P1;SDS_P2;PMS_P1;PMS_P2;Temp;Humidity;BMP_temperature;BMP_pressure;BME280_temperature;BME280_humidity;BME280_pressure;Samples;Min_cycle;Max_cycle;Signal;HPM_P1;HPM_P2
2021/08/08 00:02:09;;;;;;;;;;;;;;;18.24;55.58;99989.86;1698367;82;20119;-77
2021/08/08 00:04:37;;;;;;;;;;;;;;;18.23;55.64;99990.78;1695334;81;20132;-77
2021/08/08 00:07:04;;;;;;;;;;;;;;;18.21;55.79;99988.26;1691461;81;20136;-77
2021/08/08 00:09:30;;;;;;;;;;;;;;;18.19;55.65;99991.00;1694986;82;20161;-77
2021/08/08 00:11:56;;;;;;;;;;;;;;;18.15;55.62;99995.18;1705772;81;20238;-77
2021/08/08 00:14:22;;;;;;;;;;;;;;;18.08;56.04;99997.30;1697825;81;20118;-77
2021/08/08 00:16:50;;;;;;;;;;;;;;;18.10;55.90;100003.30;1684561;83;20104;-77
2021/08/08 00:19:16;;;;;;;;;;;;;;;18.10;56.44;100002.45;1687726;82;20198;-77
2021/08/08 00:21:42;;;;;;;;;;;;;;;18.12;56.58;100000.59;1697476;81;20281;-77
2021/08/08 00:24:10;;;;;;;;;;;;;;;18.14;56.56;99999.57;1709071;82;20133;-77
2021/08/08 00:26:35;;;;;;;;;;;;;;;18.16;56.60;100004.72;1710090;82;20184;-77
2021/08/08 00:29:02;;;;;;;;;;;;;;;18.14;56.30;99998.73;1714151;82;20124;-77
2021/08/08 00:31:30;;;;;;;;;;;;;;;18.10;57.01;99995.45;1706366;81;20212;-77
2021/08/08 00:33:56;;;;;;;;;;;;;;;18.10;57.16;99986.75;1707057;82;20214;-77
2021/08/08 00:36:22;;;;;;;;;;;;;;;18.09;57.36;99971.98;1699316;82;20270;-77
2021/08/08 00:38:48;;;;;;;;;;;;;;;18.12;57.42;99968.73;1691872;82;20195;-77
2021/08/08 00:41:15;;;;;;;;;;;;;;;18.13;57.56;99961.72;1698805;83;20158;-77
2021/08/08 00:43:41;;;;;;;;;;;;;;;18.13;57.68;99950.78;1684334;82;20200;-77
2021/08/08 00:46:07;;;;;;;;;;;;;;;18.16;57.75;99955.00;1705464;82;20239;-77
2021/08/08 00:48:33;;;;;;;;;;;;;;;18.17;57.84;99948.84;1700709;83;20216;-77
2021/08/08 00:51:00;;;;;;;;;;;;;;;18.17;57.94;99953.61;1677691;83;20196;-77
2021/08/08 00:53:26;;;;;;;;;;;;;;;18.18;58.13;99959.22;1672535;83;20191;-77
2021/08/08 00:55:53;;;;;;;;;;;;;;;18.19;58.21;99948.28;1693713;83;20181;-77
2021/08/08 00:58:20;;;;;;;;;;;;;;;18.19;58.33;99943.05;1693257;83;20193;-77
2021/08/08 01:00:52;;;;;;;;;;;;;;;18.18;58.56;99938.74;1690860;83;20207;-77
2021/08/08 01:03:19;;;;;;;;;;;;;;;18.14;58.66;99935.46;1707394;83;20219;-77
2021/08/08 01:05:50;;;;;;;;;;;;;;;18.14;58.82;99935.46;1696290;82;20365;-77
2021/08/08 01:08:28;;;;;;;;;;;;;;;18.14;58.91;99938.55;1703828;83;20201;-77
2021/08/08 01:10:55;;;;;;;;;;;;;;;18.11;58.80;99938.72;1695289;82;20250;-77
2021/08/08 01:13:26;;;;;;;;;;;;;;;18.10;58.88;99944.42;1698268;83;20184;-77
2021/08/08 01:15:52;;;;;;;;;;;;;;;18.09;58.93;99944.51;1683491;83;20259;-77
2021/08/08 01:18:19;;;;;;;;;;;;;;;18.11;58.99;99955.73;1691284;83;20229;-77
2021/08/08 01:20:48;;;;;;;;;;;;;;;18.11;59.04;99972.27;1709823;82;20232;-77
2021/08/08 01:23:15;;;;;;;;;;;;;;;18.10;59.10;99971.05;1684799;82;20176;-77
2021/08/08 01:25:44;;;;;;;;;;;;;;;18.10;59.18;99971.89;1703574;83;20212;-77
2021/08/08 01:28:10;;;;;;;;;;;;;;;18.13;59.20;99976.11;1697773;83;20213;-77
2021/08/08 01:30:36;;;;;;;;;;;;;;;18.13;59.38;99979.56;1670009;82;20191;-77
2021/08/08 01:33:05;;;;;;;;;;;;;;;18.14;58.82;99983.88;1689681;83;20204;-77
2021/08/08 01:35:32;;;;;;;;;;;;;;;18.13;59.47;99970.87;1699092;82;20137;-77
2021/08/08 01:37:59;;;;;;;;;;;;;;;18.11;59.57;99968.81;1692632;82;20123;-77
2021/08/08 01:40:31;;;;;;;;;;;;;;;18.11;59.69;99966.20;1680162;82;20106;-77
2021/08/08 01:42:59;;;;;;;;;;;;;;;18.10;59.87;99964.05;1686168;83;20122;-77
2021/08/08 01:45:25;;;;;;;;;;;;;;;18.06;59.92;99953.84;1676355;83;20110;-77
2021/08/08 01:47:55;;;;;;;;;;;;;;;18.00;60.17;99946.34;1669599;83;20107;-77
2021/08/08 01:50:21;;;;;;;;;;;;;;;17.90;60.39;99934.72;1677062;83;20098;-77
2021/08/08 01:52:48;;;;;;;;;;;;;;;17.83;60.66;99928.98;1673338;83;20137;-77
2021/08/08 01:55:15;;;;;;;;;;;;;;;17.78;60.91;99913.56;1668264;83;20110;-77
2021/08/08 01:57:42;;;;;;;;;;;;;;;17.76;61.01;99910.19;1687602;83;20114;-77
2021/08/08 02:00:09;;;;;;;;;;;;;;;17.73;61.17;99897.75;1681934;83;20110;-77
2021/08/08 02:02:34;;;;;;;;;;;;;;;17.70;61.16;99879.16;1675141;83;20097;-77
2021/08/08 02:05:00;;;;;;;;;;;;;;;17.68;61.56;99872.33;1721561;82;20157;-77
2021/08/08 02:07:27;;;;;;;;;;;;;;;17.66;61.88;99872.45;1663382;84;20196;-77
2021/08/08 02:09:53;;;;;;;;;;;;;;;17.65;62.61;99870.76;1685933;84;20161;-77
2021/08/08 02:12:22;;;;;;;;;;;;;;;17.64;62.86;99861.66;1670094;84;20206;-77
2021/08/08 02:14:48;;;;;;;;;;;;;;;17.60;62.96;99859.69;1688202;82;20212;-77
2021/08/08 02:17:15;;;;;;;;;;;;;;;17.59;63.06;99863.70;1719447;82;20219;-77
2021/08/08 02:19:40;;;;;;;;;;;;;;;17.59;63.18;99866.31;1664245;84;20185;-77
2021/08/08 02:22:06;;;;;;;;;;;;;;;17.59;62.84;99876.30;1716042;82;20249;-77
2021/08/08 02:24:33;;;;;;;;;;;;;;;17.55;62.97;99893.09;1726050;82;20179;-77
2021/08/08 02:26:59;;;;;;;;;;;;;;;17.54;62.98;99896.17;1677808;84;20814;-77
2021/08/08 02:29:25;;;;;;;;;;;;;;;17.53;63.05;99909.33;1663747;84;20192;-77
2021/08/08 02:31:52;;;;;;;;;;;;;;;17.53;63.25;99927.63;1671929;84;20201;-77
2021/08/08 02:34:18;;;;;;;;;;;;;;;17.51;63.06;99940.78;1664034;84;20194;-77
2021/08/08 02:36:44;;;;;;;;;;;;;;;17.48;63.10;99938.80;1704091;83;20198;-77
2021/08/08 02:39:10;;;;;;;;;;;;;;;17.44;63.23;99938.13;1693146;83;20222;-77
2021/08/08 02:41:36;;;;;;;;;;;;;;;17.48;63.33;99932.27;1695666;81;20472;-77
2021/08/08 02:44:03;;;;;;;;;;;;;;;17.48;63.42;99933.57;1714782;81;20130;-77
2021/08/08 02:46:31;;;;;;;;;;;;;;;17.49;63.15;99932.64;1693850;81;20215;-77
2021/08/08 02:48:57;;;;;;;;;;;;;;;17.48;63.56;99933.57;1711728;82;20212;-77
2021/08/08 02:51:23;;;;;;;;;;;;;;;17.49;63.64;99943.94;1698523;82;20223;-77
2021/08/08 02:53:50;;;;;;;;;;;;;;;17.53;63.69;99952.46;1691153;83;20200;-77
2021/08/08 02:56:16;;;;;;;;;;;;;;;17.58;63.75;99955.66;1691643;83;20893;-77
2021/08/08 02:58:42;;;;;;;;;;;;;;;17.60;63.80;99948.58;1691797;82;20218;-77
2021/08/08 03:01:13;;;;;;;;;;;;;;;17.64;63.85;99944.02;1710590;82;20204;-77
2021/08/08 03:03:39;;;;;;;;;;;;;;;17.66;63.90;99937.81;1687548;82;20179;-77
2021/08/08 03:06:11;;;;;;;;;;;;;;;17.66;63.99;99929.97;1700814;82;20192;-78
2021/08/08 03:08:42;;;;;;;;;;;;;;;17.66;63.92;99930.44;1685943;81;20188;-78
2021/08/08 03:11:09;;;;;;;;;;;;;;;17.65;64.08;99934.82;1702753;81;20218;-78
2021/08/08 03:13:35;;;;;;;;;;;;;;;17.67;64.16;99938.19;1690563;82;20188;-78
2021/08/08 03:16:02;;;;;;;;;;;;;;;17.69;64.17;99936.77;1691756;81;20273;-78
2021/08/08 03:18:28;;;;;;;;;;;;;;;17.70;64.08;99942.38;1718968;82;20223;-78
2021/08/08 03:20:54;;;;;;;;;;;;;;;17.71;64.21;99952.75;1703936;82;20205;-78
2021/08/08 03:23:20;;;;;;;;;;;;;;;17.76;64.26;99961.64;1707719;82;20228;-78
2021/08/08 03:25:50;;;;;;;;;;;;;;;17.77;64.29;99969.41;1703896;82;20171;-78
2021/08/08 03:28:16;;;;;;;;;;;;;;;17.80;64.34;99981.47;1706261;82;20789;-78
2021/08/08 03:30:42;;;;;;;;;;;;;;;17.82;64.36;99979.14;1717324;82;20229;-78
2021/08/08 03:33:09;;;;;;;;;;;;;;;17.84;64.39;99979.06;1696663;82;20244;-78
2021/08/08 03:35:35;;;;;;;;;;;;;;;17.83;64.32;99991.30;1722468;81;20184;-78
2021/08/08 03:38:01;;;;;;;;;;;;;;;17.83;64.43;99992.60;1723735;81;20213;-78
2021/08/08 03:40:28;;;;;;;;;;;;;;;17.82;64.18;99983.06;1708911;82;20207;-78
2021/08/08 03:42:54;;;;;;;;;;;;;;;17.80;64.44;99986.23;1689433;82;20236;-78
2021/08/08 03:45:20;;;;;;;;;;;;;;;17.80;64.56;99983.62;1711735;82;20185;-78
2021/08/08 03:47:47;;;;;;;;;;;;;;;17.82;64.56;99981.77;1711841;81;20112;-78
2021/08/08 03:50:13;;;;;;;;;;;;;;;17.82;64.44;99986.15;1710127;81;20860;-78
2021/08/08 03:52:39;;;;;;;;;;;;;;;17.83;64.70;99986.53;1751538;79;20115;-78
2021/08/08 03:55:14;;;;;;;;;;;;;;;17.82;64.49;99997.45;1750036;79;20128;-78
2021/08/08 03:57:40;;;;;;;;;;;;;;;17.80;64.39;100007.62;1745710;79;20156;-77
2021/08/08 04:00:07;;;;;;;;;;;;;;;17.80;64.84;100008.47;1751097;79;20210;-77
2021/08/08 04:02:33;;;;;;;;;;;;;;;17.84;64.88;100001.30;1765414;79;20109;-77
2021/08/08 04:04:59;;;;;;;;;;;;;;;17.87;64.99;100005.05;1764868;79;20202;-77
2021/08/08 04:07:25;;;;;;;;;;;;;;;17.88;64.96;100007.20;1747238;79;20265;-77
2021/08/08 04:09:51;;;;;;;;;;;;;;;17.89;64.98;100011.50;1752786;79;20205;-77
2021/08/08 04:12:17;;;;;;;;;;;;;;;17.91;65.08;100004.41;1750042;79;20192;-77
2021/08/08 04:14:43;;;;;;;;;;;;;;;17.90;65.09;99999.64;1778374;79;20207;-77
2021/08/08 04:17:09;;;;;;;;;;;;;;;17.94;65.17;100013.39;1752394;79;20203;-77
2021/08/08 04:19:36;;;;;;;;;;;;;;;17.97;65.17;100007.99;1746861;79;20171;-77
2021/08/08 04:22:02;;;;;;;;;;;;;;;17.98;65.25;100007.91;1758698;79;20195;-77
2021/08/08 04:24:29;;;;;;;;;;;;;;;18.02;65.34;100016.42;1756014;79;20154;-77
2021/08/08 04:26:55;;;;;;;;;;;;;;;18.03;65.25;100012.42;1751691;79;20177;-77
2021/08/08 04:29:24;;;;;;;;;;;;;;;18.04;65.38;100007.56;1759715;79;20213;-77
2021/08/08 04:31:50;;;;;;;;;;;;;;;18.06;65.41;100013.55;1780159;79;20183;-77
2021/08/08 04:34:17;;;;;;;;;;;;;;;18.08;65.47;100018.23;1756912;79;20187;-77
2021/08/08 04:36:42;;;;;;;;;;;;;;;18.09;65.47;100029.55;1758633;79;20168;-77
2021/08/08 04:39:09;;;;;;;;;;;;;;;18.10;65.56;100028.16;1743906;79;20169;-77
2021/08/08 04:41:35;;;;;;;;;;;;;;;18.12;65.57;100034.14;1760736;79;20178;-77
2021/08/08 04:44:01;;;;;;;;;;;;;;;18.14;65.59;100032.75;1742245;79;20179;-77
2021/08/08 04:46:28;;;;;;;;;;;;;;;18.15;65.65;100023.50;1767400;79;20224;-77
2021/08/08 04:48:54;;;;;;;;;;;;;;;18.15;65.60;100026.58;1747824;79;20212;-77
2021/08/08 04:51:20;;;;;;;;;;;;;;;18.14;65.69;100016.58;1751487;79;20209;-77
2021/08/08 04:53:47;;;;;;;;;;;;;;;18.17;65.77;100023.41;1767787;79;20175;-77
2021/08/08 04:56:13;;;;;;;;;;;;;;;18.20;65.81;100014.89;1762839;79;20199;-77
2021/08/08 04:58:39;;;;;;;;;;;;;;;18.24;65.75;100012.95;1774297;79;20740;-77
2021/08/08 05:01:06;;;;;;;;;;;;;;;18.23;65.86;100021.73;1762276;79;20167;-77
2021/08/08 05:03:32;;;;;;;;;;;;;;;18.24;65.83;100024.72;1773135;79;20261;-77
2021/08/08 05:05:58;;;;;;;;;;;;;;;18.25;65.95;100026.41;1756065;80;20184;-77
2021/08/08 05:08:24;;;;;;;;;;;;;;;18.25;65.95;100027.72;1755234;79;20207;-77
2021/08/08 05:10:50;;;;;;;;;;;;;;;18.27;66.00;100037.63;1756399;80;20527;-77
2021/08/08 05:13:16;;;;;;;;;;;;;;;18.28;65.85;100038.02;1761299;79;20469;-77
2021/08/08 05:15:42;;;;;;;;;;;;;;;18.29;65.82;100041.47;1776057;79;20220;-77
2021/08/08 05:18:09;;;;;;;;;;;;;;;18.29;66.07;100041.01;1763266;79;20189;-77
2021/08/08 05:20:35;;;;;;;;;;;;;;;18.31;66.04;100050.92;1760231;79;20127;-77
2021/08/08 05:23:01;;;;;;;;;;;;;;;18.35;66.11;100058.98;1757802;80;21492;-77
2021/08/08 05:25:33;;;;;;;;;;;;;;;18.42;66.08;100058.17;1759831;80;20177;-77
2021/08/08 05:27:59;;;;;;;;;;;;;;;18.48;66.03;100074.37;1759063;79;20289;-77
2021/08/08 05:30:25;;;;;;;;;;;;;;;18.77;66.62;100078.41;1778190;79;20173;-77
2021/08/08 05:32:57;;;;;;;;;;;;;;;19.05;66.31;100073.23;1761734;79;20190;-77
2021/08/08 05:35:23;;;;;;;;;;;;;;;19.14;66.18;100068.75;1753844;79;20179;-77
2021/08/08 05:37:49;;;;;;;;;;;;;;;19.19;65.87;100078.95;1744024;79;20238;-77
2021/08/08 05:40:16;;;;;;;;;;;;;;;19.15;66.02;100077.45;1745604;79;20183;-77
2021/08/08 05:42:49;;;;;;;;;;;;;;;19.15;66.04;100077.45;1725739;79;20109;-77
2021/08/08 05:45:15;;;;;;;;;;;;;;;19.18;65.96;100068.94;1733036;80;20133;-77
2021/08/08 05:47:41;;;;;;;;;;;;;;;19.31;66.25;100062.92;1761156;80;20124;-77
2021/08/08 05:50:07;;;;;;;;;;;;;;;19.45;66.33;100072.11;1742003;80;20858;-78
2021/08/08 05:52:33;;;;;;;;;;;;;;;19.53;66.19;100062.02;1723772;80;20124;-78
2021/08/08 05:55:01;;;;;;;;;;;;;;;19.55;66.18;100060.15;1729688;80;20146;-78
2021/08/08 05:57:27;;;;;;;;;;;;;;;19.61;66.25;100075.98;1739199;80;20189;-77
2021/08/08 05:59:53;;;;;;;;;;;;;;;19.69;66.42;100077.19;1737576;80;20194;-77
2021/08/08 06:02:19;;;;;;;;;;;;;;;19.94;66.17;100088.75;1731261;80;20206;-77
2021/08/08 06:04:49;;;;;;;;;;;;;;;19.96;66.05;100099.98;1671315;83;20141;-77
2021/08/08 06:07:16;;;;;;;;;;;;;;;20.02;66.30;100115.35;1703233;82;20159;-77
2021/08/08 06:09:42;;;;;;;;;;;;;;;20.07;66.04;100111.50;1699389;82;20174;-78
2021/08/08 06:12:09;;;;;;;;;;;;;;;20.07;65.86;100102.31;1698050;82;20151;-78
2021/08/08 06:14:35;;;;;;;;;;;;;;;20.08;66.20;100104.47;1691598;82;20180;-78
2021/08/08 06:17:01;;;;;;;;;;;;;;;20.10;66.02;100111.77;1676197;84;20209;-78
2021/08/08 06:19:27;;;;;;;;;;;;;;;20.05;65.90;100110.75;1695678;83;20479;-78
2021/08/08 06:21:53;;;;;;;;;;;;;;;20.00;65.91;100109.36;1686917;83;20132;-78
2021/08/08 06:24:20;;;;;;;;;;;;;;;20.05;66.27;100116.47;1683574;83;20997;-78
2021/08/08 06:26:49;;;;;;;;;;;;;;;20.15;66.21;100122.83;1701399;82;20526;-78
2021/08/08 06:29:21;;;;;;;;;;;;;;;20.14;66.19;100132.95;1676523;83;20164;-79
2021/08/08 06:31:47;;;;;;;;;;;;;;;20.09;66.09;100129.77;1685455;83;20213;-78
2021/08/08 06:34:13;;;;;;;;;;;;;;;20.06;66.35;100140.00;1685447;83;20187;-78
2021/08/08 06:36:39;;;;;;;;;;;;;;;20.05;66.12;100140.94;1678220;83;20882;-78
2021/08/08 06:39:05;;;;;;;;;;;;;;;20.01;66.29;100143.84;1676887;83;20530;-78
2021/08/08 06:41:32;;;;;;;;;;;;;;;19.99;66.29;100137.85;1691868;83;20113;-78
2021/08/08 06:43:58;;;;;;;;;;;;;;;19.99;66.39;100143.09;1704271;83;20138;-78
2021/08/08 06:46:24;;;;;;;;;;;;;;;19.94;66.37;100138.61;1700524;82;20923;-78
2021/08/08 06:48:50;;;;;;;;;;;;;;;19.95;66.43;100128.02;1696594;83;20183;-78
2021/08/08 06:51:17;;;;;;;;;;;;;;;20.02;66.59;100147.69;1710362;82;20090;-78
2021/08/08 06:53:43;;;;;;;;;;;;;;;20.18;66.54;100150.20;1707985;82;21109;-78
2021/08/08 06:56:09;;;;;;;;;;;;;;;20.30;66.57;100151.17;1661977;84;20170;-78
2021/08/08 06:58:42;;;;;;;;;;;;;;;20.33;66.31;100146.57;1678820;83;20495;-78
2021/08/08 07:01:08;;;;;;;;;;;;;;;20.32;66.42;100143.58;1684856;83;20201;-77
2021/08/08 07:03:34;;;;;;;;;;;;;;;20.33;66.45;100141.32;1672990;84;20172;-77
2021/08/08 07:06:06;;;;;;;;;;;;;;;20.34;66.50;100139.53;1658189;84;20537;-77
2021/08/08 07:08:32;;;;;;;;;;;;;;;20.29;66.39;100130.64;1692461;83;20576;-79
2021/08/08 07:10:58;;;;;;;;;;;;;;;20.26;66.38;100140.53;1708868;83;20281;-79
2021/08/08 07:13:24;;;;;;;;;;;;;;;20.24;66.57;100140.62;1730094;82;20180;-79
2021/08/08 07:15:51;;;;;;;;;;;;;;;20.20;66.54;100148.79;1696467;84;20637;-79
2021/08/08 07:18:17;;;;;;;;;;;;;;;20.14;66.45;100145.61;1704501;83;20179;-79
2021/08/08 07:20:46;;;;;;;;;;;;;;;20.05;66.42;100161.09;1705366;83;20155;-79
2021/08/08 07:23:13;;;;;;;;;;;;;;;20.00;66.68;100157.44;1711501;82;20169;-79
2021/08/08 07:25:39;;;;;;;;;;;;;;;20.03;66.80;100147.22;1713491;83;20546;-79
2021/08/08 07:28:05;;;;;;;;;;;;;;;20.07;66.71;100130.34;1704005;83;20474;-79
2021/08/08 07:30:33;;;;;;;;;;;;;;;20.10;66.80;100123.59;1697434;83;20265;-79
2021/08/08 07:32:59;;;;;;;;;;;;;;;20.19;66.86;100123.00;1687081;82;20460;-77
2021/08/08 07:35:35;;;;;;;;;;;;;;;20.39;66.82;100132.23;1701376;82;20134;-77
2021/08/08 07:38:01;;;;;;;;;;;;;;;20.47;66.79;100140.00;1692097;82;20427;-77
2021/08/08 07:40:27;;;;;;;;;;;;;;;20.55;66.69;100136.03;1699758;82;20726;-78
2021/08/08 07:42:56;;;;;;;;;;;;;;;20.51;66.42;100126.67;1707827;83;20456;-79
2021/08/08 07:45:22;;;;;;;;;;;;;;;20.49;66.44;100134.65;1699909;82;20162;-79
2021/08/08 07:47:48;;;;;;;;;;;;;;;20.46;66.67;100148.82;1712903;82;20466;-78
2021/08/08 07:50:17;;;;;;;;;;;;;;;20.47;66.72;100154.45;1714731;82;20458;-78
2021/08/08 07:52:43;;;;;;;;;;;;;;;20.50;66.52;100149.47;1712383;82;20462;-78
2021/08/08 07:55:11;;;;;;;;;;;;;;;20.52;66.93;100144.11;1718837;82;20637;-78
2021/08/08 07:57:37;;;;;;;;;;;;;;;20.69;67.00;100145.18;1719770;82;20120;-79
2021/08/08 08:00:09;;;;;;;;;;;;;;;20.80;66.81;100146.60;1715380;82;20450;-78
2021/08/08 08:02:35;;;;;;;;;;;;;;;20.93;66.89;100148.80;1713517;82;20515;-78
2021/08/08 08:05:01;;;;;;;;;;;;;;;21.12;66.83;100148.42;1715658;82;20568;-78
2021/08/08 08:07:27;;;;;;;;;;;;;;;21.24;66.64;100149.41;1716206;82;20233;-78
2021/08/08 08:09:53;;;;;;;;;;;;;;;21.31;66.37;100152.84;1702737;82;20234;-78
2021/08/08 08:12:26;;;;;;;;;;;;;;;21.33;66.33;100156.17;1704746;83;20620;-78
2021/08/08 08:14:52;;;;;;;;;;;;;;;21.32;66.32;100162.38;1693446;83;20501;-78
2021/08/08 08:17:18;;;;;;;;;;;;;;;21.43;66.66;100165.60;1702274;82;20631;-79
2021/08/08 08:19:47;;;;;;;;;;;;;;;21.67;66.55;100172.30;1693295;83;20601;-79
2021/08/08 08:22:16;;;;;;;;;;;;;;;22.08;66.60;100170.25;1686796;83;20472;-79
2021/08/08 08:24:44;;;;;;;;;;;;;;;22.40;66.10;100171.04;1689060;83;20151;-78
2021/08/08 08:27:11;;;;;;;;;;;;;;;22.57;66.08;100176.41;1689143;83;20619;-78
2021/08/08 08:29:38;;;;;;;;;;;;;;;22.74;65.93;100183.93;1683742;83;20217;-78
2021/08/08 08:32:05;;;;;;;;;;;;;;;22.85;65.88;100172.63;1682592;83;20568;-78
2021/08/08 08:34:32;;;;;;;;;;;;;;;22.92;65.65;100178.63;1683776;83;20606;-79
2021/08/08 08:36:58;;;;;;;;;;;;;;;22.99;65.69;100181.17;1700189;83;20352;-79
2021/08/08 08:39:25;;;;;;;;;;;;;;;23.07;65.51;100181.44;1695174;83;20536;-77
2021/08/08 08:42:00;;;;;;;;;;;;;;;23.08;65.66;100187.08;1691066;83;20217;-82
2021/08/08 08:44:26;;;;;;;;;;;;;;;23.18;65.89;100195.14;1697351;82;20265;-82
2021/08/08 08:46:55;;;;;;;;;;;;;;;23.37;65.72;100195.92;1692053;82;20616;-82
2021/08/08 08:49:22;;;;;;;;;;;;;;;23.43;65.73;100192.79;1684022;82;20765;-83
2021/08/08 08:52:00;;;;;;;;;;;;;;;23.60;65.55;100204.25;1692490;82;20533;-83
2021/08/08 08:54:29;;;;;;;;;;;;;;;23.64;65.31;100208.81;1694264;83;20201;-81
2021/08/08 08:56:57;;;;;;;;;;;;;;;23.65;65.11;100207.86;1707832;83;20455;-81
2021/08/08 08:59:24;;;;;;;;;;;;;;;23.85;65.34;100215.09;1691145;83;20178;-81
2021/08/08 09:01:51;;;;;;;;;;;;;;;24.43;65.01;100217.60;1697342;82;20123;-81
2021/08/08 09:04:19;;;;;;;;;;;;;;;24.94;64.86;100216.48;1716748;82;20089;-81
2021/08/08 09:06:46;;;;;;;;;;;;;;;25.71;64.70;100218.38;1692205;83;20167;-81
2021/08/08 09:09:18;;;;;;;;;;;;;;;26.02;64.26;100217.88;1710757;82;20133;-81
2021/08/08 09:11:58;;;;;;;;;;;;;;;25.92;64.21;100218.34;1718231;83;20430;-82
2021/08/08 09:14:24;;;;;;;;;;;;;;;25.69;64.33;100222.48;1723317;82;20318;-82
2021/08/08 09:16:53;;;;;;;;;;;;;;;25.79;64.21;100227.83;1701961;82;20449;-81
2021/08/08 09:19:23;;;;;;;;;;;;;;;26.06;63.94;100230.73;1689949;83;20142;-81
2021/08/08 09:21:55;;;;;;;;;;;;;;;26.17;64.10;100232.45;1692157;83;20112;-82
2021/08/08 09:24:33;;;;;;;;;;;;;;;25.95;64.29;100224.70;1700977;83;20115;-82
2021/08/08 09:27:07;;;;;;;;;;;;;;;25.62;64.17;100221.77;1690837;82;20436;-80
2021/08/08 09:29:37;;;;;;;;;;;;;;;25.22;63.47;100227.80;1706072;83;20119;-80
2021/08/08 09:32:04;;;;;;;;;;;;;;;24.95;63.28;100236.20;1696108;83;20125;-79
2021/08/08 09:34:33;;;;;;;;;;;;;;;24.71;63.20;100232.90;1704126;83;20089;-79
2021/08/08 09:37:03;;;;;;;;;;;;;;;24.50;62.84;100235.45;1681613;83;20116;-79
2021/08/08 09:39:35;;;;;;;;;;;;;;;24.39;62.90;100231.54;1683286;83;20441;-79
2021/08/08 09:42:11;;;;;;;;;;;;;;;24.28;62.62;100240.31;1676408;83;20244;-79
2021/08/08 09:44:38;;;;;;;;;;;;;;;24.18;62.29;100247.25;1675674;83;20127;-79
2021/08/08 09:47:06;;;;;;;;;;;;;;;24.07;61.99;100248.56;1679649;83;20122;-79
2021/08/08 09:49:33;;;;;;;;;;;;;;;24.04;62.08;100245.69;1683866;83;20124;-79
2021/08/08 09:51:58;;;;;;;;;;;;;;;24.05;61.93;100268.50;1692427;83;20165;-79
2021/08/08 09:54:28;;;;;;;;;;;;;;;24.01;61.47;100263.58;1668995;83;20199;-79
2021/08/08 09:56:59;;;;;;;;;;;;;;;23.93;61.45;100273.41;1676561;83;20434;-79
2021/08/08 09:59:25;;;;;;;;;;;;;;;23.83;61.33;100272.94;1690283;83;20088;-79
2021/08/08 10:01:51;;;;;;;;;;;;;;;23.81;61.46;100270.89;1683217;83;20113;-79
2021/08/08 10:04:20;;;;;;;;;;;;;;;23.79;61.27;100273.66;1679335;83;20172;-79
2021/08/08 10:06:54;;;;;;;;;;;;;;;23.79;61.18;100288.66;1676793;84;20141;-80
2021/08/08 10:09:21;;;;;;;;;;;;;;;23.76;60.88;100288.41;1673417;83;20129;-79
2021/08/08 10:11:50;;;;;;;;;;;;;;;23.69;60.83;100285.39;1677491;84;20098;-78
2021/08/08 10:14:16;;;;;;;;;;;;;;;23.67;60.63;100283.83;1674158;84;20109;-78
2021/08/08 10:16:42;;;;;;;;;;;;;;;23.65;60.63;100276.50;1677358;83;20417;-78
2021/08/08 10:19:09;;;;;;;;;;;;;;;23.67;60.74;100279.39;1670209;84;20649;-78
2021/08/08 10:21:38;;;;;;;;;;;;;;;23.75;60.62;100285.41;1675350;84;20116;-78
2021/08/08 10:24:06;;;;;;;;;;;;;;;23.79;60.55;100280.73;1678597;83;20133;-78
2021/08/08 10:26:32;;;;;;;;;;;;;;;23.82;60.21;100288.42;1671007;83;20451;-78
2021/08/08 10:29:00;;;;;;;;;;;;;;;23.83;60.07;100288.78;1683887;83;20449;-78
2021/08/08 10:31:28;;;;;;;;;;;;;;;23.89;60.09;100297.56;1679430;83;20118;-78
2021/08/08 10:33:56;;;;;;;;;;;;;;;23.98;60.07;100302.95;1694033;83;20133;-78
2021/08/08 10:36:32;;;;;;;;;;;;;;;24.05;59.76;100300.68;1698043;83;20126;-78
2021/08/08 10:39:10;;;;;;;;;;;;;;;24.01;59.69;100310.64;1706113;83;20113;-78
2021/08/08 10:41:41;;;;;;;;;;;;;;;24.02;59.56;100303.08;1689848;83;20139;-78
2021/08/08 10:44:14;;;;;;;;;;;;;;;24.06;59.41;100305.00;1725920;81;20466;-78
2021/08/08 10:46:46;;;;;;;;;;;;;;;24.02;59.38;100303.08;1730774;82;20162;-78
2021/08/08 10:49:32;;;;;;;;;;;;;;;24.01;59.28;100300.07;1726807;82;20119;-78
2021/08/08 10:52:01;;;;;;;;;;;;;;;24.04;59.31;100307.77;1726438;82;20138;-78
2021/08/08 10:54:43;;;;;;;;;;;;;;;24.08;59.17;100301.28;1714773;81;20149;-78
2021/08/08 10:57:14;;;;;;;;;;;;;;;24.15;59.18;100304.30;1713548;82;20144;-78
2021/08/08 10:59:44;;;;;;;;;;;;;;;24.29;59.04;100301.94;1712009;82;20108;-78
2021/08/08 11:02:13;;;;;;;;;;;;;;;24.40;58.80;100298.81;1726287;82;20182;-78
2021/08/08 11:04:39;;;;;;;;;;;;;;;24.54;58.95;100308.27;1714083;82;20133;-78
2021/08/08 11:07:08;;;;;;;;;;;;;;;24.63;58.56;100306.70;1724793;82;20133;-78
2021/08/08 11:09:36;;;;;;;;;;;;;;;24.66;58.22;100301.17;1697037;82;20130;-78
2021/08/08 11:12:03;;;;;;;;;;;;;;;24.75;58.32;100305.25;1696951;82;20153;-78
2021/08/08 11:14:32;;;;;;;;;;;;;;;24.83;58.02;100307.77;1702006;82;20161;-78
2021/08/08 11:17:03;;;;;;;;;;;;;;;24.92;58.11;100303.90;1706025;82;20132;-78
2021/08/08 11:19:35;;;;;;;;;;;;;;;25.01;57.84;100310.25;1710433;82;20123;-78
2021/08/08 11:22:15;;;;;;;;;;;;;;;25.04;57.52;100304.23;1702789;82;20145;-78
2021/08/08 11:24:43;;;;;;;;;;;;;;;25.01;57.55;100311.09;1708518;82;20496;-78
2021/08/08 11:27:11;;;;;;;;;;;;;;;24.95;57.26;100304.14;1706828;82;20125;-77
2021/08/08 11:29:37;;;;;;;;;;;;;;;24.88;57.14;100310.40;1699370;82;20153;-77
2021/08/08 11:32:06;;;;;;;;;;;;;;;24.85;57.21;100304.03;1705785;82;20161;-77
2021/08/08 11:34:33;;;;;;;;;;;;;;;24.81;57.22;100313.18;1701508;83;20133;-77
2021/08/08 11:36:59;;;;;;;;;;;;;;;24.77;57.20;100327.61;1705998;81;20153;-78
2021/08/08 11:39:35;;;;;;;;;;;;;;;24.71;56.77;100325.45;1707220;82;20099;-78
2021/08/08 11:42:07;;;;;;;;;;;;;;;24.72;56.90;100317.88;1704482;82;20088;-78
2021/08/08 11:44:39;;;;;;;;;;;;;;;24.84;56.78;100320.02;1701334;82;20191;-81
2021/08/08 11:47:06;;;;;;;;;;;;;;;24.88;56.66;100318.81;1706765;82;20735;-81
2021/08/08 11:49:46;;;;;;;;;;;;;;;25.00;56.75;100310.73;1705431;82;20338;-81
2021/08/08 11:52:17;;;;;;;;;;;;;;;25.13;56.30;100321.17;1713412;82;20790;-81
2021/08/08 11:54:45;;;;;;;;;;;;;;;25.19;56.13;100329.94;1727578;82;20159;-81
2021/08/08 11:57:12;;;;;;;;;;;;;;;25.31;55.77;100324.13;1705571;82;20145;-82
2021/08/08 11:59:38;;;;;;;;;;;;;;;25.40;55.78;100321.56;1694696;82;20143;-80
2021/08/08 12:02:11;;;;;;;;;;;;;;;25.43;54.87;100305.06;1720718;82;20209;-85
2021/08/08 12:04:38;;;;;;;;;;;;;;;25.40;55.48;100330.83;1697181;82;20457;-85
2021/08/08 12:07:07;;;;;;;;;;;;;;;25.46;55.21;100337.42;1691149;82;20488;-85
2021/08/08 12:09:42;;;;;;;;;;;;;;;25.48;54.85;100349.18;1713112;82;20246;-85
2021/08/08 12:12:08;;;;;;;;;;;;;;;25.46;54.79;100340.07;1695820;81;20211;-85
2021/08/08 12:14:36;;;;;;;;;;;;;;;25.45;54.78;100345.49;1721026;82;20887;-85
2021/08/08 12:17:07;;;;;;;;;;;;;;;25.45;54.82;100347.66;1691756;82;20251;-85
2021/08/08 12:19:36;;;;;;;;;;;;;;;25.52;54.57;100342.18;1702685;82;20586;-85
2021/08/08 12:22:06;;;;;;;;;;;;;;;25.54;54.38;100357.46;1688283;82;20233;-85
2021/08/08 12:24:40;;;;;;;;;;;;;;;25.46;54.21;100355.95;1697810;82;20437;-85
2021/08/08 12:27:07;;;;;;;;;;;;;;;25.33;54.21;100368.03;1693698;84;20094;-85
2021/08/08 12:29:35;;;;;;;;;;;;;;;25.22;54.12;100366.73;1724424;82;20135;-85
2021/08/08 12:32:14;;;;;;;;;;;;;;;25.25;54.11;100363.84;1686300;82;20132;-85
2021/08/08 12:34:42;;;;;;;;;;;;;;;25.33;53.97;100369.84;1710046;81;20119;-85
2021/08/08 12:37:10;;;;;;;;;;;;;;;25.33;53.88;100372.00;1701970;82;20162;-85
2021/08/08 12:39:38;;;;;;;;;;;;;;;25.35;53.58;100375.36;1698140;82;20456;-85
2021/08/08 12:42:22;;;;;;;;;;;;;;;25.39;53.70;100375.47;1740996;81;20133;-85
2021/08/08 12:44:52;;;;;;;;;;;;;;;25.51;53.79;100372.27;1709936;83;20123;-85